createdAt,value
2022-08-07T00:31:12.275Z,0
2022-08-07T00:31:51.292Z,0
2022-08-07T00:32:30.859Z,0
2022-08-07T00:33:11.385Z,0
2022-08-07T00:33:51.870Z,0
2022-08-07T00:36:09.940Z,0
2022-08-07T00:36:50.171Z,0
2022-08-07T00:37:30.707Z,0
2022-08-07T00:38:11.148Z,0
2022-08-07T00:38:51.635Z,0
2022-08-07T00:39:32.181Z,0
2022-08-07T00:40:12.534Z,0
2022-08-07T00:40:53.007Z,0
2022-08-07T00:41:33.453Z,0
2022-08-07T00:42:13.979Z,0
2022-08-07T00:48:19.797Z,0
2022-08-07T00:49:01.983Z,0
2022-08-07T00:50:17.413Z,0
2022-08-07T00:50:43.601Z,0
2022-08-07T00:51:01.744Z,0
2022-08-07T00:51:57.803Z,0
2022-08-07T00:52:22.739Z,0
2022-08-07T00:53:03.210Z,0
2022-08-07T00:53:50.386Z,0
2022-08-07T00:54:24.191Z,0
2022-08-07T00:55:10.507Z,0
2022-08-07T01:01:49.564Z,0
2022-08-07T01:02:29.946Z,0
2022-08-07T01:03:10.373Z,0
2022-08-07T01:03:55.160Z,0
2022-08-07T01:04:32.552Z,0
2022-08-07T01:05:18.955Z,0
2022-08-07T01:05:53.681Z,0
2022-08-07T01:06:32.771Z,0
2022-08-07T01:07:13.266Z,0
2022-08-07T01:07:53.734Z,0
2022-08-07T01:08:34.281Z,0
2022-08-07T01:09:35.701Z,0
2022-08-07T01:16:00.744Z,0
2022-08-07T01:16:42.923Z,0
2022-08-07T01:17:20.408Z,0
2022-08-07T01:18:00.920Z,0
2022-08-07T01:18:41.370Z,0
2022-08-07T01:19:21.841Z,0
2022-08-07T01:20:02.314Z,0
2022-08-07T01:20:42.931Z,0
2022-08-07T01:21:24.414Z,0
2022-08-07T01:22:03.798Z,0
2022-08-07T01:22:47.142Z,0
2022-08-07T01:23:25.546Z,0
2022-08-07T01:30:09.569Z,0
2022-08-07T01:30:51.194Z,0
2022-08-07T01:31:41.939Z,0
2022-08-07T01:32:12.390Z,0
2022-08-07T01:32:51.445Z,0
2022-08-07T01:33:55.306Z,0
2022-08-07T01:34:12.447Z,0
2022-08-07T01:34:52.908Z,0
2022-08-07T01:35:37.072Z,0
2022-08-07T01:36:16.756Z,0
2022-08-07T01:36:57.801Z,0
2022-08-07T01:44:19.449Z,0
2022-08-07T01:44:59.930Z,0
2022-08-07T01:45:40.468Z,0
2022-08-07T01:46:21.327Z,0
2022-08-07T01:47:01.375Z,0
2022-08-07T01:48:29.983Z,0
2022-08-07T01:49:02.823Z,0
2022-08-07T01:49:43.290Z,0
2022-08-07T01:50:28.752Z,0
2022-08-07T01:51:08.338Z,0
2022-08-07T01:52:02.992Z,0
2022-08-07T01:58:33.266Z,0
2022-08-07T01:59:15.799Z,0
2022-08-07T01:59:50.398Z,0
2022-08-07T02:00:30.904Z,0
2022-08-07T02:01:25.229Z,0
2022-08-07T02:01:59.142Z,0
2022-08-07T02:02:32.426Z,0
2022-08-07T02:03:19.542Z,0
2022-08-07T02:03:53.202Z,0
2022-08-07T02:04:33.716Z,0
2022-08-07T02:05:15.763Z,0
2022-08-07T02:05:55.378Z,0
2022-08-07T02:13:19.756Z,0
2022-08-07T02:14:02.416Z,0
2022-08-07T02:14:41.273Z,0
2022-08-07T02:15:21.233Z,0
2022-08-07T02:16:01.715Z,0
2022-08-07T02:16:42.177Z,0
2022-08-07T02:17:24.912Z,0
2022-08-07T02:18:03.093Z,0
2022-08-07T02:18:45.433Z,0
2022-08-07T02:19:30.052Z,0
2022-08-07T02:20:07.921Z,0
2022-08-07T02:27:34.165Z,0
2022-08-07T02:28:11.293Z,0
2022-08-07T02:28:50.505Z,0
2022-08-07T02:29:31.225Z,0
2022-08-07T02:30:11.412Z,0
2022-08-07T02:30:51.913Z,0
2022-08-07T02:31:32.526Z,0
2022-08-07T02:32:12.841Z,0
2022-08-07T02:33:00.938Z,0
2022-08-07T02:33:42.187Z,0
2022-08-07T02:34:17.164Z,0
2022-08-07T02:41:39.522Z,0
2022-08-07T02:42:20.028Z,0
2022-08-07T02:43:00.483Z,0
2022-08-07T02:43:40.938Z,0
2022-08-07T02:44:21.471Z,0
2022-08-07T02:45:07.346Z,0
2022-08-07T02:45:59.487Z,0
2022-08-07T02:46:22.819Z,0
2022-08-07T02:47:03.313Z,0
2022-08-07T02:47:45.335Z,0
2022-08-07T02:48:24.265Z,0
2022-08-07T02:56:29.806Z,0
2022-08-07T02:57:10.327Z,0
2022-08-07T02:57:50.764Z,0
2022-08-07T02:58:33.211Z,0
2022-08-07T02:59:11.798Z,0
2022-08-07T02:59:55.067Z,0
2022-08-07T03:00:32.597Z,0
2022-08-07T03:01:18.987Z,0
2022-08-07T03:01:55.109Z,0
2022-08-07T03:02:34.038Z,0
2022-08-07T03:03:20.961Z,0
2022-08-07T03:08:39.762Z,0
2022-08-07T03:09:42.558Z,0
2022-08-07T03:10:00.687Z,0
2022-08-07T03:10:46.811Z,0
2022-08-07T03:11:25.256Z,0
2022-08-07T03:12:02.678Z,0
2022-08-07T03:12:42.539Z,0
2022-08-07T03:13:23.011Z,0
2022-08-07T03:14:03.459Z,0
2022-08-07T03:14:43.968Z,0
2022-08-07T03:15:28.006Z,0
2022-08-07T03:22:49.973Z,0
2022-08-07T03:23:33.485Z,0
2022-08-07T03:24:17.532Z,0
2022-08-07T03:24:50.929Z,0
2022-08-07T03:25:32.405Z,0
2022-08-07T03:26:15.516Z,0
2022-08-07T03:26:58.018Z,0
2022-08-07T03:27:42.094Z,0
2022-08-07T03:28:37.923Z,0
2022-08-07T03:28:53.677Z,0
2022-08-07T03:29:36.723Z,0
2022-08-07T03:37:46.594Z,0
2022-08-07T03:38:21.148Z,4
2022-08-07T03:39:05.365Z,0
2022-08-07T03:39:46.592Z,4
2022-08-07T03:40:22.247Z,4
2022-08-07T03:41:02.113Z,4
2022-08-07T03:41:47.434Z,4
2022-08-07T03:42:23.002Z,4
2022-08-07T03:43:03.455Z,4
2022-08-07T03:43:43.989Z,8
2022-08-07T03:44:31.987Z,8
2022-08-07T03:51:55.287Z,16
2022-08-07T03:52:29.996Z,20
2022-08-07T03:53:10.470Z,20
2022-08-07T03:54:06.053Z,24
2022-08-07T03:54:33.492Z,24
2022-08-07T03:55:11.915Z,28
2022-08-07T03:55:52.761Z,32
2022-08-07T03:56:34.249Z,32
2022-08-07T03:58:08.625Z,36
2022-08-07T03:58:09.197Z,40
2022-08-07T03:59:06.956Z,40
2022-08-07T03:59:15.020Z,44
2022-08-07T04:06:39.774Z,84
2022-08-07T04:07:22.803Z,92
2022-08-07T04:08:00.712Z,96
2022-08-07T04:08:41.125Z,104
2022-08-07T04:09:23.161Z,108
2022-08-07T04:10:02.857Z,112
2022-08-07T04:10:42.609Z,120
2022-08-07T04:12:15.502Z,128
2022-08-07T04:12:21.616Z,132
2022-08-07T04:12:43.854Z,140
2022-08-07T04:13:26.850Z,148
2022-08-07T04:20:54.470Z,272
2022-08-07T04:21:31.057Z,292
2022-08-07T04:22:14.530Z,316
2022-08-07T04:22:53.321Z,336
2022-08-07T04:23:43.126Z,348
2022-08-07T04:24:11.858Z,372
2022-08-07T04:24:52.321Z,384
2022-08-07T04:25:35.969Z,408
2022-08-07T04:26:13.222Z,436
2022-08-07T04:26:53.669Z,468
2022-08-07T04:27:35.341Z,480
2022-08-07T04:28:14.595Z,520
2022-08-07T04:35:39.680Z,1380
2022-08-07T04:36:22.675Z,1084
2022-08-07T04:37:00.621Z,1048
2022-08-07T04:38:03.646Z,1076
2022-08-07T04:38:21.545Z,1212
2022-08-07T04:39:02.041Z,1288
2022-08-07T04:39:45.652Z,1364
2022-08-07T04:40:22.913Z,1416
2022-08-07T04:41:03.360Z,1488
2022-08-07T04:41:43.866Z,1460
2022-08-07T04:42:24.312Z,1452
2022-08-07T04:43:04.733Z,1536
2022-08-07T04:49:57.655Z,3852
2022-08-07T04:50:29.876Z,3848
2022-08-07T04:51:10.331Z,3880
2022-08-07T04:51:50.794Z,3744
2022-08-07T04:52:31.344Z,4168
2022-08-07T04:53:16.422Z,4200
2022-08-07T04:54:01.247Z,4288
2022-08-07T04:54:32.683Z,4576
2022-08-07T04:55:14.739Z,4560
2022-08-07T04:58:08.371Z,4752
2022-08-07T04:58:08.414Z,5236
2022-08-07T04:58:09.310Z,4836
2022-08-07T05:04:44.053Z,7500
2022-08-07T05:05:52.478Z,7800
2022-08-07T05:06:00.789Z,8072
2022-08-07T05:06:42.901Z,8356
2022-08-07T05:07:24.125Z,8596
2022-08-07T05:08:02.246Z,9188
2022-08-07T05:08:45.646Z,9496
2022-08-07T05:09:28.157Z,8912
2022-08-07T05:10:04.608Z,8536
2022-08-07T05:10:44.155Z,8776
2022-08-07T05:11:26.247Z,9204
2022-08-07T05:18:49.798Z,13312
2022-08-07T05:19:32.803Z,14080
2022-08-07T05:20:10.649Z,14368
2022-08-07T05:20:51.111Z,15616
2022-08-07T05:21:59.709Z,15328
2022-08-07T05:22:12.061Z,15200
2022-08-07T05:22:52.839Z,15360
2022-08-07T05:23:35.436Z,14912
2022-08-07T05:24:13.471Z,14592
2022-08-07T05:24:53.941Z,14080
2022-08-07T05:25:36.534Z,13504
2022-08-07T05:32:59.764Z,20736
2022-08-07T05:33:40.155Z,20448
2022-08-07T05:34:20.615Z,20000
2022-08-07T05:35:02.167Z,20992
2022-08-07T05:35:42.328Z,21536
2022-08-07T05:36:22.463Z,21632
2022-08-07T05:37:02.522Z,21632
2022-08-07T05:37:43.030Z,21216
2022-08-07T05:38:57.976Z,21856
2022-08-07T05:39:08.834Z,22464
2022-08-07T05:40:06.142Z,23552
2022-08-07T05:47:18.527Z,25248
2022-08-07T05:48:00.262Z,25984
2022-08-07T05:48:30.743Z,26336
2022-08-07T05:49:12.264Z,26752
2022-08-07T05:49:51.702Z,27040
2022-08-07T05:50:32.206Z,27264
2022-08-07T05:51:12.677Z,26016
2022-08-07T05:51:53.190Z,27808
2022-08-07T05:52:33.686Z,27680
2022-08-07T06:32:01.737Z,34912
2022-08-07T06:32:42.163Z,36832
2022-08-07T06:33:22.892Z,39392
2022-08-07T06:34:03.144Z,41568
2022-08-07T06:34:45.217Z,44288
2022-08-07T06:35:24.077Z,44000
2022-08-07T06:36:06.346Z,41920
2022-08-07T06:36:45.032Z,40896
2022-08-07T06:37:25.517Z,38880
2022-08-07T06:38:06.003Z,38944
2022-08-07T06:44:51.584Z,49888
2022-08-07T06:45:31.365Z,46912
2022-08-07T06:46:12.419Z,43616
2022-08-07T06:46:53.411Z,43584
2022-08-07T06:47:38.830Z,44096
2022-08-07T06:48:13.745Z,46368
2022-08-07T06:55:48.270Z,21632
2022-08-07T06:56:21.528Z,24928
2022-08-07T06:57:02.028Z,25440
2022-08-07T06:57:46.857Z,25024
2022-08-07T06:58:24.540Z,25408
2022-08-07T07:00:11.138Z,26176
2022-08-07T07:00:11.520Z,26464
2022-08-07T07:00:24.501Z,28960
2022-08-07T07:01:05.001Z,32672
2022-08-07T07:01:49.040Z,35648
2022-08-07T07:02:49.387Z,38560
2022-08-07T07:09:10.903Z,33952
2022-08-07T07:09:51.403Z,34720
2022-08-07T07:10:31.830Z,33568
2022-08-07T07:11:13.426Z,32416
2022-08-07T07:12:07.159Z,31712
2022-08-07T07:12:33.522Z,34016
2022-08-07T07:13:13.778Z,32896
2022-08-07T07:13:56.763Z,26752
2022-08-07T07:14:34.741Z,20160
2022-08-07T07:15:23.463Z,17536
2022-08-07T07:15:55.739Z,16736
2022-08-07T07:24:05.668Z,15424
2022-08-07T07:24:05.704Z,15244
2022-08-07T07:24:42.902Z,15264
2022-08-07T07:26:30.719Z,15112
2022-08-07T07:26:31.788Z,14668
2022-08-07T07:26:49.811Z,14380
2022-08-07T07:27:23.968Z,14116
2022-08-07T07:28:07.671Z,13656
2022-08-07T07:28:48.670Z,12636
2022-08-07T07:29:38.732Z,10336
2022-08-07T07:30:09.513Z,7724
2022-08-07T07:36:52.769Z,5504
2022-08-07T07:37:45.604Z,5516
2022-08-07T07:38:11.748Z,5268
2022-08-07T07:38:52.237Z,4916
2022-08-07T07:39:35.748Z,4604
2022-08-07T07:40:15.028Z,4428
2022-08-07T07:40:53.691Z,4316
2022-08-07T07:41:50.602Z,4240
2022-08-07T07:42:17.564Z,4172
2022-08-07T07:42:55.531Z,4112
2022-08-07T07:43:48.316Z,4116
2022-08-07T07:51:02.089Z,3008
2022-08-07T07:51:57.702Z,2952
2022-08-07T07:52:22.032Z,2924
2022-08-07T07:53:02.489Z,2888
2022-08-07T07:53:51.624Z,2840
2022-08-07T07:54:23.439Z,2792
2022-08-07T07:55:03.979Z,2756
2022-08-07T07:55:45.430Z,2724
2022-08-07T07:56:29.892Z,2688
2022-08-07T07:57:05.473Z,2644
2022-08-07T07:57:52.682Z,2608
2022-08-07T08:04:31.135Z,2256
2022-08-07T08:05:14.412Z,2236
2022-08-07T08:05:54.690Z,2204
2022-08-07T08:06:32.514Z,2184
2022-08-07T08:07:12.996Z,2160
2022-08-07T08:07:59.764Z,2140
2022-08-07T08:08:36.826Z,2116
2022-08-07T08:09:14.473Z,2096
2022-08-07T08:10:05.144Z,2080
2022-08-07T08:10:38.175Z,2064
2022-08-07T08:11:16.691Z,2048
2022-08-07T08:18:17.743Z,1904
2022-08-07T08:18:41.316Z,1892
2022-08-07T08:20:16.687Z,1868
2022-08-07T08:20:18.977Z,1880
2022-08-07T08:20:43.558Z,1860
2022-08-07T08:21:23.370Z,1848
2022-08-07T08:22:03.997Z,1836
2022-08-07T08:22:54.087Z,1828
2022-08-07T08:23:25.335Z,1820
2022-08-07T08:24:05.309Z,1812
2022-08-07T08:24:46.569Z,1800
2022-08-07T08:32:17.678Z,1728
2022-08-07T08:32:51.672Z,1724
2022-08-07T08:33:33.046Z,1716
2022-08-07T08:34:19.083Z,1712
2022-08-07T08:34:53.091Z,1704
2022-08-07T08:35:39.250Z,1700
2022-08-07T08:36:14.066Z,1692
2022-08-07T08:36:56.348Z,1688
2022-08-07T08:37:53.963Z,1680
2022-08-07T08:38:15.612Z,1676
2022-08-07T08:44:29.524Z,1640
2022-08-07T08:45:01.388Z,1640
2022-08-07T08:45:58.812Z,1632
2022-08-07T08:46:22.380Z,1632
2022-08-07T08:47:02.879Z,1624
2022-08-07T08:47:47.543Z,1620
2022-08-07T08:48:28.355Z,1616
2022-08-07T08:49:05.069Z,1616
2022-08-07T08:49:46.188Z,1608
2022-08-07T08:50:28.528Z,1604
2022-08-07T08:51:14.438Z,1604
2022-08-07T08:57:50.685Z,1576
2022-08-07T08:58:31.157Z,1572
2022-08-07T08:59:12.957Z,1568
2022-08-07T08:59:52.144Z,1564
2022-08-07T09:00:32.720Z,1560
2022-08-07T09:01:14.857Z,1556
2022-08-07T09:01:53.635Z,1548
2022-08-07T09:02:34.542Z,1544
2022-08-07T09:03:14.613Z,1540
2022-08-07T09:03:55.410Z,1536
2022-08-07T09:04:35.605Z,1540
2022-08-07T09:12:09.063Z,1500
2022-08-07T09:12:41.532Z,1504
2022-08-07T09:13:35.287Z,1500
2022-08-07T09:14:02.469Z,1492
2022-08-07T09:14:50.823Z,1488
2022-08-07T09:16:20.029Z,1484
2022-08-07T09:16:21.282Z,1484
2022-08-07T09:16:45.562Z,1476
2022-08-07T09:17:24.972Z,1476
2022-08-07T09:18:10.035Z,1476
2022-08-07T09:18:47.401Z,1472
2022-08-07T09:25:31.064Z,1440
2022-08-07T09:26:11.574Z,1440
2022-08-07T09:26:52.009Z,1440
2022-08-07T09:27:38.269Z,1436
2022-08-07T09:30:00.496Z,1432
2022-08-07T09:30:02.808Z,1428
2022-08-07T09:30:03.091Z,1424
2022-08-07T09:30:14.433Z,1416
2022-08-07T09:30:55.180Z,1416
2022-08-07T09:31:38.412Z,1412
2022-08-07T09:39:06.373Z,1388
2022-08-07T09:39:53.512Z,1384
2022-08-07T09:40:21.925Z,1384
2022-08-07T09:41:03.495Z,1380
2022-08-07T09:41:43.478Z,1376
2022-08-07T09:42:24.986Z,1372
2022-08-07T09:43:03.837Z,1376
2022-08-07T09:44:06.344Z,1376
2022-08-07T09:44:30.140Z,1372
2022-08-07T09:46:28.910Z,1364
2022-08-07T09:46:29.181Z,1368
2022-08-07T09:52:33.961Z,1348
2022-08-07T09:53:12.681Z,1348
2022-08-07T09:53:56.204Z,1348
2022-08-07T09:54:32.326Z,1344
2022-08-07T09:55:17.229Z,1344
2022-08-07T09:56:02.984Z,1336
2022-08-07T09:56:37.428Z,1336
2022-08-07T09:57:14.375Z,1336
2022-08-07T09:57:54.766Z,1332
2022-08-07T09:59:15.741Z,1328
2022-08-07T10:06:02.812Z,1312
2022-08-07T10:06:41.116Z,1308
2022-08-07T10:07:24.730Z,1312
2022-08-07T10:08:02.546Z,1316
2022-08-07T10:08:42.605Z,1312
2022-08-07T10:09:23.555Z,1304
2022-08-07T10:10:03.576Z,1300
2022-08-07T10:11:08.034Z,1304
2022-08-07T10:12:00.875Z,1300
2022-08-07T10:12:11.932Z,1296
2022-08-07T10:12:45.993Z,1292
2022-08-07T10:13:30.028Z,1288
2022-08-07T10:20:12.878Z,1296
2022-08-07T10:20:51.339Z,1296
2022-08-07T10:21:51.053Z,1296
2022-08-07T10:22:16.419Z,1292
2022-08-07T10:22:52.818Z,1292
2022-08-07T10:24:04.596Z,1292
2022-08-07T10:24:17.146Z,1288
2022-08-07T10:24:54.355Z,1288
2022-08-07T10:25:42.683Z,1284
2022-08-07T10:26:15.255Z,1288
2022-08-07T10:26:55.740Z,1288
2022-08-07T10:34:05.256Z,1268
2022-08-07T10:34:27.093Z,1268
2022-08-07T10:35:01.843Z,1264
2022-08-07T10:35:55.100Z,1268
2022-08-07T10:36:29.554Z,1264
2022-08-07T10:37:03.899Z,1260
2022-08-07T10:37:48.818Z,1260
2022-08-07T10:38:35.610Z,1260
2022-08-07T10:39:05.545Z,1256
2022-08-07T10:39:57.778Z,1252
2022-08-07T10:40:29.996Z,1256
2022-08-07T10:46:30.913Z,1240
2022-08-07T10:47:11.627Z,1240
2022-08-07T10:47:53.016Z,1236
2022-08-07T10:48:34.545Z,1236
2022-08-07T10:49:12.893Z,1236
2022-08-07T10:49:53.373Z,1232
2022-08-07T10:50:33.884Z,1236
2022-08-07T10:51:16.534Z,1228
2022-08-07T10:53:44.476Z,1224
2022-08-07T10:54:23.568Z,1224
2022-08-07T10:55:07.974Z,1224
2022-08-07T10:55:44.727Z,1220
2022-08-07T10:56:31.017Z,1220
2022-08-07T10:57:05.675Z,1220
2022-08-07T10:57:46.155Z,1220
2022-08-07T10:58:32.129Z,1216
2022-08-07T10:59:07.095Z,1220
2022-08-07T10:59:47.747Z,1216
2022-08-07T11:06:32.584Z,1204
2022-08-07T11:07:15.275Z,1200
2022-08-07T11:07:57.169Z,1204
2022-08-07T11:08:34.151Z,1200
2022-08-07T11:10:06.803Z,1196
2022-08-07T11:10:08.114Z,1200
2022-08-07T11:10:37.299Z,1196
2022-08-07T11:11:20.162Z,1192
2022-08-07T11:11:59.251Z,1188
2022-08-07T11:18:03.319Z,1184
2022-08-07T11:18:42.953Z,1184
2022-08-07T11:19:26.981Z,1184
2022-08-07T11:20:04.085Z,1184
2022-08-07T11:20:44.562Z,1180
2022-08-07T11:21:25.059Z,1180
2022-08-07T11:22:05.550Z,1180
2022-08-07T11:22:46.549Z,1176
2022-08-07T11:23:30.930Z,1176
2022-08-07T11:24:08.422Z,1176
2022-08-07T11:24:47.656Z,1172
2022-08-07T11:31:33.240Z,1164
2022-08-07T11:32:13.217Z,1164
2022-08-07T11:32:53.709Z,1164
2022-08-07T11:33:54.596Z,1160
2022-08-07T11:34:16.278Z,1164
2022-08-07T11:34:55.230Z,1160
2022-08-07T11:35:35.665Z,1160
2022-08-07T11:36:16.194Z,1160
2022-08-07T11:36:56.716Z,1156
2022-08-07T11:44:22.420Z,1148
2022-08-07T11:45:03.485Z,1148
2022-08-07T11:45:50.108Z,1144
2022-08-07T11:46:23.885Z,1148
2022-08-07T11:47:04.356Z,1144
2022-08-07T11:47:53.686Z,1144
2022-08-07T11:48:29.331Z,1144
2022-08-07T11:49:28.924Z,1144
2022-08-07T11:50:32.171Z,1144
2022-08-07T11:51:09.005Z,1140
2022-08-07T12:32:18.132Z,1076
2022-08-07T12:32:58.501Z,1076
2022-08-07T12:33:55.900Z,1076
2022-08-07T12:34:20.297Z,1076
2022-08-07T12:36:49.315Z,1072
2022-08-07T12:38:10.476Z,1068
2022-08-07T12:38:16.916Z,1068
2022-08-07T12:38:57.368Z,1068
2022-08-07T12:39:41.239Z,1068
2022-08-07T12:40:29.983Z,1068
2022-08-07T12:40:51.710Z,1064
2022-08-07T12:41:46.271Z,1064
2022-08-07T12:42:13.241Z,1064
2022-08-07T12:42:55.065Z,1064
2022-08-07T12:49:40.344Z,1052
2022-08-07T12:50:34.665Z,1052
2022-08-07T12:50:59.225Z,1052
2022-08-07T12:51:46.804Z,1048
2022-08-07T12:52:20.227Z,1052
2022-08-07T12:53:00.771Z,1052
2022-08-07T12:54:02.521Z,1048
2022-08-07T12:54:24.425Z,1048
2022-08-07T12:55:03.889Z,1048
2022-08-07T12:55:54.478Z,1048
2022-08-07T12:56:23.204Z,1048
2022-08-07T13:03:08.111Z,1044
2022-08-07T13:03:56.548Z,1044
2022-08-07T13:04:31.794Z,1044
2022-08-07T13:05:15.214Z,1044
2022-08-07T13:06:02.261Z,1044
2022-08-07T13:06:30.560Z,1044
2022-08-07T13:07:18.079Z,1044
2022-08-07T13:08:11.792Z,1040
2022-08-07T13:08:32.142Z,1044
2022-08-07T13:10:10.217Z,1040
2022-08-07T13:10:20.312Z,1040
2022-08-07T13:17:18.467Z,1252
2022-08-07T13:17:59.477Z,1240
2022-08-07T13:18:39.369Z,1216
2022-08-07T13:19:22.126Z,1236
2022-08-07T13:20:00.417Z,1264
2022-08-07T13:20:41.096Z,1296
2022-08-07T13:21:35.126Z,1320
2022-08-07T13:22:09.800Z,1336
2022-08-07T13:22:42.454Z,1356
2022-08-07T13:24:02.310Z,1376
2022-08-07T13:30:49.225Z,1636
2022-08-07T13:31:31.888Z,1648
2022-08-07T13:32:23.590Z,1660
2022-08-07T13:32:49.862Z,1652
2022-08-07T13:34:14.840Z,1664
2022-08-07T13:34:32.570Z,1660
2022-08-07T13:34:51.337Z,1656
2022-08-07T13:36:00.111Z,1640
2022-08-07T13:36:17.336Z,1616
2022-08-07T13:36:52.761Z,1576
2022-08-07T13:44:18.099Z,1176
2022-08-07T13:45:21.144Z,1164
2022-08-07T13:46:07.830Z,1156
2022-08-07T13:46:24.736Z,1148
2022-08-07T13:47:00.141Z,1144
2022-08-07T13:48:05.719Z,1136
2022-08-07T13:48:27.969Z,1132
2022-08-07T13:49:01.682Z,1128
2022-08-07T13:50:31.826Z,1124
2022-08-07T13:50:32.418Z,1140
2022-08-07T13:51:03.192Z,1124
2022-08-07T13:57:59.314Z,1072
2022-08-07T13:58:31.403Z,1068
2022-08-07T13:59:10.306Z,1068
2022-08-07T13:59:49.608Z,1064
2022-08-07T14:00:30.108Z,1064
2022-08-07T14:01:10.637Z,1060
2022-08-07T14:01:59.325Z,1060
2022-08-07T14:02:33.542Z,1056
2022-08-07T14:03:13.797Z,1048
2022-08-07T14:04:05.903Z,1048
2022-08-07T14:11:19.034Z,1032
2022-08-07T14:12:00.608Z,1032
2022-08-07T14:12:41.463Z,1028
2022-08-07T14:13:19.688Z,1024
2022-08-07T14:14:00.223Z,1020
2022-08-07T14:14:40.717Z,1016
2022-08-07T14:15:22.462Z,1016
2022-08-07T14:16:01.657Z,1016
2022-08-07T14:16:44.927Z,1012
2022-08-07T14:17:32.161Z,1012
2022-08-07T14:18:13.272Z,1008
2022-08-07T14:23:31.285Z,988
2022-08-07T14:24:08.617Z,988
2022-08-07T14:24:49.190Z,988
2022-08-07T14:25:39.257Z,984
2022-08-07T14:26:10.185Z,984
2022-08-07T14:26:51.062Z,984
2022-08-07T14:28:12.049Z,984
2022-08-07T14:28:13.512Z,984
2022-08-07T14:28:57.211Z,980
2022-08-07T14:30:03.179Z,976
2022-08-07T14:30:14.001Z,976
2022-08-07T14:36:58.164Z,968
2022-08-07T14:37:40.038Z,964
2022-08-07T14:38:24.600Z,964
2022-08-07T14:39:00.283Z,964
2022-08-07T14:40:15.140Z,964
2022-08-07T14:41:02.307Z,960
2022-08-07T14:42:15.243Z,956
2022-08-07T14:42:22.741Z,952
2022-08-07T14:50:28.756Z,936
2022-08-07T14:51:15.590Z,940
2022-08-07T14:52:02.711Z,940
2022-08-07T14:52:30.228Z,940
2022-08-07T14:53:10.752Z,940
2022-08-07T14:54:10.042Z,936
2022-08-07T14:54:34.649Z,936
2022-08-07T14:55:12.267Z,932
2022-08-07T14:55:55.466Z,932
2022-08-07T15:02:39.340Z,920
2022-08-07T15:03:19.908Z,916
2022-08-07T15:05:32.818Z,912
2022-08-07T15:06:13.525Z,912
2022-08-07T15:06:54.125Z,908
2022-08-07T15:07:45.572Z,904
2022-08-07T15:08:15.022Z,908
2022-08-07T15:08:55.794Z,908
2022-08-07T15:09:57.393Z,904
2022-08-07T15:14:21.424Z,900
2022-08-07T15:15:43.166Z,896
2022-08-07T15:16:31.178Z,896
2022-08-07T15:17:04.239Z,896
2022-08-07T15:18:28.759Z,892
2022-08-07T15:19:07.229Z,892
2022-08-07T15:25:03.429Z,884
2022-08-07T15:25:16.472Z,884
2022-08-07T15:25:52.916Z,880
2022-08-07T15:26:33.442Z,876
2022-08-07T15:27:15.248Z,880
2022-08-07T15:28:02.277Z,876
2022-08-07T15:28:43.147Z,876
2022-08-07T15:30:03.804Z,876
2022-08-07T15:30:04.001Z,876
2022-08-07T15:30:59.722Z,872
2022-08-07T15:36:01.047Z,868
2022-08-07T15:37:03.540Z,864
2022-08-07T15:37:27.624Z,860
2022-08-07T15:38:18.472Z,860
2022-08-07T15:45:55.357Z,856
2022-08-07T15:46:32.553Z,856
2022-08-07T15:46:53.085Z,852
2022-08-07T15:48:00.516Z,852
2022-08-07T15:48:13.778Z,848
2022-08-07T15:48:55.273Z,844
2022-08-07T15:50:03.651Z,848
2022-08-07T15:50:38.068Z,844
2022-08-07T15:51:54.160Z,840
2022-08-07T15:52:16.863Z,836
2022-08-07T15:57:01.720Z,832
2022-08-07T15:57:48.284Z,832
2022-08-07T15:58:22.863Z,832
2022-08-07T15:59:03.317Z,828
2022-08-07T15:59:44.074Z,828
2022-08-07T16:00:32.262Z,828
2022-08-07T16:01:05.030Z,828
2022-08-07T16:01:45.552Z,824
2022-08-07T16:02:26.225Z,824
2022-08-07T16:03:06.576Z,824
2022-08-07T16:08:28.668Z,816
2022-08-07T16:09:08.445Z,812
2022-08-07T16:09:48.963Z,812
2022-08-07T16:10:29.418Z,812
2022-08-07T16:11:25.407Z,808
2022-08-07T16:11:50.424Z,808
2022-08-07T16:12:31.167Z,808
2022-08-07T16:13:17.710Z,808
2022-08-07T16:13:58.228Z,808
2022-08-07T16:14:32.415Z,804
2022-08-07T16:22:04.966Z,792
2022-08-07T16:22:38.522Z,792
2022-08-07T16:23:25.321Z,792
2022-08-07T16:23:59.337Z,792
2022-08-07T16:24:39.862Z,788
2022-08-07T16:25:22.919Z,788
2022-08-07T16:26:00.801Z,788
2022-08-07T16:26:59.123Z,784
2022-08-07T16:27:21.777Z,780
2022-08-07T16:28:02.242Z,780
2022-08-07T16:29:19.342Z,776
2022-08-07T16:34:00.813Z,776
2022-08-07T16:34:09.928Z,772
2022-08-07T16:34:49.086Z,772
2022-08-07T16:35:32.590Z,768
2022-08-07T16:36:18.238Z,768
2022-08-07T16:37:00.235Z,768
2022-08-07T16:38:05.033Z,764
2022-08-07T16:38:11.592Z,764
2022-08-07T16:39:00.203Z,760
2022-08-07T16:39:33.506Z,760
2022-08-07T16:47:09.189Z,740
2022-08-07T16:47:51.077Z,744
2022-08-07T16:48:27.604Z,740
2022-08-07T16:50:19.856Z,736
2022-08-07T16:50:19.892Z,740
2022-08-07T16:50:29.048Z,732
2022-08-07T16:51:13.819Z,732
2022-08-07T16:51:51.999Z,724
2022-08-07T16:52:49.096Z,720
2022-08-07T16:53:10.002Z,708
2022-08-07T16:53:55.790Z,700
2022-08-07T17:00:29.730Z,700
2022-08-07T17:01:08.165Z,700
2022-08-07T17:01:48.645Z,696
2022-08-07T17:02:51.928Z,692
2022-08-07T17:03:09.561Z,668
2022-08-07T17:03:58.753Z,672
2022-08-07T17:04:30.541Z,676
2022-08-07T17:05:15.163Z,676
2022-08-07T17:06:02.742Z,672
2022-08-07T17:06:35.959Z,660
2022-08-07T17:07:56.082Z,644
2022-08-07T17:13:17.651Z,624
2022-08-07T17:14:17.722Z,616
2022-08-07T17:14:38.666Z,616
2022-08-07T17:15:19.122Z,608
2022-08-07T17:15:59.614Z,600
2022-08-07T17:16:40.081Z,588
2022-08-07T17:17:21.503Z,580
2022-08-07T17:18:01.086Z,572
2022-08-07T17:18:41.582Z,560
2022-08-07T17:19:23.937Z,556
2022-08-07T17:20:13.912Z,552
2022-08-07T17:26:49.652Z,548
2022-08-07T17:27:28.949Z,556
2022-08-07T17:28:08.696Z,560
2022-08-07T17:28:49.794Z,552
2022-08-07T17:30:13.394Z,556
2022-08-07T17:30:13.833Z,540
2022-08-07T17:30:57.867Z,524
2022-08-07T17:31:31.098Z,520
2022-08-07T17:32:30.235Z,524
2022-08-07T17:32:53.340Z,528
2022-08-07T17:34:08.394Z,524
2022-08-07T17:40:57.999Z,508
2022-08-07T17:42:03.204Z,508
2022-08-07T17:42:18.965Z,508
2022-08-07T17:43:00.447Z,512
2022-08-07T17:44:02.079Z,512
2022-08-07T17:44:33.490Z,516
2022-08-07T17:45:00.934Z,528
2022-08-07T17:45:42.115Z,528
2022-08-07T17:46:21.884Z,532
2022-08-07T17:47:02.408Z,532
2022-08-07T17:47:43.158Z,528
2022-08-07T17:54:00.335Z,496
2022-08-07T17:54:29.947Z,496
2022-08-07T18:34:06.759Z,220
2022-08-07T18:34:53.137Z,216
2022-08-07T18:37:00.099Z,192
2022-08-07T18:38:54.309Z,184
2022-08-07T18:38:54.595Z,180
2022-08-07T18:40:05.900Z,172
2022-08-07T18:40:06.147Z,172
2022-08-07T18:40:40.687Z,168
2022-08-07T18:41:08.366Z,164
2022-08-07T18:41:43.775Z,164
2022-08-07T18:42:24.022Z,164
2022-08-07T18:43:04.511Z,160
2022-08-07T18:43:48.822Z,160
2022-08-07T18:47:50.336Z,140
2022-08-07T18:48:38.148Z,136
2022-08-07T18:50:06.717Z,124
2022-08-07T18:50:06.742Z,132
2022-08-07T18:50:39.416Z,120
2022-08-07T18:51:14.860Z,120
2022-08-07T18:52:09.706Z,116
2022-08-07T18:52:37.881Z,112
2022-08-07T18:53:14.512Z,108
2022-08-07T18:53:55.691Z,104
2022-08-07T19:00:40.040Z,68
2022-08-07T19:02:16.077Z,68
2022-08-07T19:02:17.929Z,60
2022-08-07T19:02:42.377Z,60
2022-08-07T19:03:35.467Z,56
2022-08-07T19:04:02.561Z,52
2022-08-07T19:04:56.027Z,52
2022-08-07T19:05:23.536Z,48
2022-08-07T19:06:04.981Z,40
2022-08-07T19:06:48.443Z,40
2022-08-07T19:14:11.527Z,16
2022-08-07T19:14:50.989Z,16
2022-08-07T19:16:03.932Z,16
2022-08-07T19:16:43.846Z,12
2022-08-07T19:17:04.339Z,16
2022-08-07T19:17:54.398Z,12
2022-08-07T19:18:13.594Z,12
2022-08-07T19:18:54.435Z,8
2022-08-07T19:19:34.962Z,8
2022-08-07T19:26:22.489Z,4
2022-08-07T19:28:28.985Z,4
2022-08-07T19:28:31.278Z,0
2022-08-07T19:28:31.443Z,4
2022-08-07T19:30:59.131Z,4
2022-08-07T19:30:59.581Z,0
2022-08-07T19:30:59.759Z,0
2022-08-07T19:31:33.712Z,4